Colerain, NC (27924)

4:11 AM EDT on July 24, 2014 (GMT -0400)
Nowell Farm Road (KNCCOLER2) Elev 75 ft | 36.19 °N, 76.82 °W | Change Station

Current weather conditions updated 10 seconds ago

Clear
Clear
75.7 °F
Feels Like 74 °F
N
5.1
Wind Variable Wind from SW
Gusts 7.4 mph

Today is forecast to be Cooler than yesterday. Showers and thunderstorms.

Today
High -- | Low -- °F
--% Chance of Precip.
Yesterday
High -- | Low -- °F
Precip. -- in
6:08 AM 8:19 PM
Waning Crescent, 6% visible
Pressure 29.87 in
Visibility 10.0 miles
Clouds Scattered Clouds 4800 ft
Mostly Cloudy 12000 ft
Heat Index 74 °F
Dew Point 75 °F
Humidity 98%
Rainfall 0.00 in
Snow Depth Not available.
UV 0 out of 12
Pollen 5.10 out of 12
Air Quality Not available.
Flu Activity Not available.
METAR KEDE 240755Z AUTO 24007KT 10SM SCT048 BKN120 26/24 A2987 RMK AO2 T02550236

More Conditions Fewer Conditions

Pressure 29.87 in
Visibility 10.0 miles
Clouds Scattered Clouds 4800 ft
Mostly Cloudy 12000 ft
Heat Index 74 °F
Dew Point 75 °F
Humidity 98%
Rainfall 0.00 in
Snow Depth Not available.
UV 0 out of 12
Pollen 5.10 out of 12
Air Quality Not available.
Flu Activity Not available.
METAR KEDE 240755Z AUTO 24007KT 10SM SCT048 BKN120 26/24 A2987 RMK AO2 T02550236

More Conditions Fewer Conditions

10-Day Weather Forecast

Almanac

Astronomy

Jul. 24, 2014 Rise Set
Actual Time 6:08 AM EDT 8:19 PM EDT
Civil Twilight 5:39 AM EDT 8:48 PM EDT
Nautical Twilight 5:03 AM EDT 9:23 PM EDT
Astronomical Twilight 4:25 AM EDT 10:01 PM EDT
Moon 4:13 AM EDT 6:33 PM EDT
Length of Visible Light 15h 08m
Length of Day
14h 11m
Tomorrow will be 1m 30s shorter.
Waning Crescent, 6% of the Moon is Illuminated
Today
Waning Crescent
Jul 26
New
Aug 3
First Quarter
Aug 10
Full
Aug 17
Last Quarter

Today's Extremes

State Highs State Lows

Community

WunderPhotos

Upload Photos

1,736,950 photos uploaded!

Nearby

Snow Depth

Station Depth Elevation
No new snow has been reported.

Earthquake Activity

City Distance Mag. Time & Date
No recent earthquake activity has been reported nearby.
Minimum magnitude displayed is 2.5.

Coastal Water Temperatures

Place Temperature
Oregon Inlet Marina, NC 82.9 °F
Duck Pier, NC 73.0 °F
Hatteras, NC 82.0 °F
Money Point, VA 82.0 °F
Sewells Point, VA 80.1 °F
Chesapeake Bay Bridge Tunnel, VA 79.0 °F

Nearby Weather Stations

Station Location Temp. Heat Index Dew Point Humidity Wind Precip. Elev Updated Type
Nowell Farm Road, Colerain, NC 75.7 °F 74 °F 75 °F 98% SW  at  5.1 mph 0.00 in / hr 75 ft 4:11 AM EDT Rapid Fire
Holiday Island Road, Hertford, NC 75.9 °F 75 °F 74 °F 93% WSW  at  3.0 mph 0.00 in / hr 10 ft 4:07 AM EDT Normal
Ashley's Grove, Conway, NC 75.7 °F 75 °F 74 °F 94% SSW  at  5.0 mph 0.00 in / hr 65 ft 4:11 AM EDT Rapid Fire

Show More Stations Show Fewer Stations